createdAt,value
2019-03-24T00:00:35.473Z,1013.91
2019-03-24T00:01:41.205Z,1013.94
2019-03-24T00:02:37.459Z,1013.87
2019-03-24T00:03:35.439Z,1013.87
2019-03-24T00:04:35.435Z,1013.87
2019-03-24T00:05:35.468Z,1013.83
2019-03-24T00:06:35.508Z,1013.88
2019-03-24T00:07:35.410Z,1013.85
2019-03-24T00:08:35.409Z,1013.87
2019-03-24T00:09:35.396Z,1013.94
2019-03-24T00:10:35.399Z,1013.94
2019-03-24T00:11:35.402Z,1013.87
2019-03-24T00:12:35.386Z,1013.86
2019-03-24T00:13:35.367Z,1013.91
2019-03-24T00:14:35.361Z,1013.85
2019-03-24T00:15:35.368Z,1013.84
2019-03-24T00:16:35.360Z,1013.83
2019-03-24T00:17:35.378Z,1013.81
2019-03-24T00:18:35.341Z,1013.81
2019-03-24T00:19:35.338Z,1013.83
2019-03-24T00:20:35.329Z,1013.82
2019-03-24T00:21:35.316Z,1013.82
2019-03-24T00:22:35.336Z,1013.82
2019-03-24T00:23:35.311Z,1013.85
2019-03-24T00:24:35.330Z,1013.83
2019-03-24T00:25:35.286Z,1013.82
2019-03-24T00:26:35.290Z,1013.82
2019-03-24T00:27:35.294Z,1013.78
2019-03-24T00:28:35.276Z,1013.71
2019-03-24T00:29:35.269Z,1013.77
2019-03-24T00:30:35.258Z,1013.75
2019-03-24T00:31:35.253Z,1013.75
2019-03-24T00:32:35.244Z,1013.79
2019-03-24T00:33:35.252Z,1013.75
2019-03-24T00:34:35.222Z,1013.74
2019-03-24T00:35:35.214Z,1013.76
2019-03-24T00:36:35.209Z,1013.74
2019-03-24T00:37:35.202Z,1013.73
2019-03-24T00:38:35.204Z,1013.76
2019-03-24T00:39:35.215Z,1013.74
2019-03-24T00:40:35.191Z,1013.77
2019-03-24T00:41:35.185Z,1013.71
2019-03-24T00:42:35.175Z,1013.73
2019-03-24T00:43:35.171Z,1013.74
2019-03-24T00:44:35.183Z,1013.74
2019-03-24T00:45:37.033Z,1013.66
2019-03-24T00:46:36.149Z,1013.65
2019-03-24T00:47:35.138Z,1013.65
2019-03-24T00:48:35.134Z,1013.64
2019-03-24T00:49:35.125Z,1013.68
2019-03-24T00:50:35.120Z,1013.65
2019-03-24T00:51:35.106Z,1013.65
2019-03-24T00:52:35.099Z,1013.59
2019-03-24T00:53:35.092Z,1013.59
2019-03-24T00:54:35.118Z,1013.62
2019-03-24T00:55:35.081Z,1013.54
2019-03-24T00:56:35.064Z,1013.59
2019-03-24T00:57:37.399Z,1013.57
2019-03-24T00:58:35.049Z,1013.55
2019-03-24T00:59:35.041Z,1013.59
2019-03-24T01:00:35.051Z,1013.50
2019-03-24T01:01:35.036Z,1013.52
2019-03-24T01:02:35.021Z,1013.52
2019-03-24T01:03:35.015Z,1013.49
2019-03-24T01:04:35.013Z,1013.53
2019-03-24T01:05:35.008Z,1013.45
2019-03-24T01:06:34.993Z,1013.43
2019-03-24T01:07:34.991Z,1013.43
2019-03-24T01:08:34.981Z,1013.34
2019-03-24T01:09:34.973Z,1013.43
2019-03-24T01:10:34.989Z,1013.44
2019-03-24T01:11:34.989Z,1013.40
2019-03-24T01:12:34.963Z,1013.39
2019-03-24T01:13:34.950Z,1013.40
2019-03-24T01:14:34.950Z,1013.45
2019-03-24T01:15:34.938Z,1013.41
2019-03-24T01:16:34.939Z,1013.41
2019-03-24T01:17:34.919Z,1013.39
2019-03-24T01:18:34.924Z,1013.39
2019-03-24T01:19:34.917Z,1013.43
2019-03-24T01:20:34.894Z,1013.33
2019-03-24T01:21:34.893Z,1013.39
2019-03-24T01:22:34.884Z,1013.27
2019-03-24T01:23:34.907Z,1013.34
2019-03-24T01:24:34.894Z,1013.31
2019-03-24T01:25:34.893Z,1013.31
2019-03-24T01:26:34.883Z,1013.27
2019-03-24T01:27:34.874Z,1013.35
2019-03-24T01:28:34.861Z,1013.28
2019-03-24T01:29:34.852Z,1013.33
2019-03-24T01:30:34.847Z,1013.29
2019-03-24T01:31:34.853Z,1013.28
2019-03-24T01:32:34.864Z,1013.24
2019-03-24T01:33:34.835Z,1013.25
2019-03-24T01:34:34.829Z,1013.32
2019-03-24T01:35:34.843Z,1013.24
2019-03-24T01:36:34.835Z,1013.30
2019-03-24T01:37:34.860Z,1013.34
2019-03-24T01:38:34.819Z,1013.33
2019-03-24T01:39:34.813Z,1013.36
2019-03-24T01:40:34.828Z,1013.28
2019-03-24T01:41:34.823Z,1013.37
2019-03-24T01:42:34.816Z,1013.34
2019-03-24T01:43:34.815Z,1013.28
2019-03-24T01:44:34.803Z,1013.31
2019-03-24T01:45:34.790Z,1013.24
2019-03-24T01:46:34.792Z,1013.21
2019-03-24T01:47:34.777Z,1013.25
2019-03-24T01:48:34.771Z,1013.32
2019-03-24T01:49:34.761Z,1013.33
2019-03-24T01:50:34.754Z,1013.31
2019-03-24T01:51:34.758Z,1013.24
2019-03-24T01:52:34.738Z,1013.24
2019-03-24T01:53:34.735Z,1013.33
2019-03-24T01:54:34.744Z,1013.28
2019-03-24T01:55:34.713Z,1013.20
2019-03-24T01:56:34.711Z,1013.19
2019-03-24T01:57:34.719Z,1013.21
2019-03-24T01:58:34.694Z,1013.15
2019-03-24T01:59:34.700Z,1013.14
2019-03-24T02:00:34.681Z,1013.16
2019-03-24T02:01:34.678Z,1013.09
2019-03-24T02:02:34.676Z,1013.10
2019-03-24T02:03:34.658Z,1013.09
2019-03-24T02:04:34.682Z,1013.12
2019-03-24T02:05:34.666Z,1013.09
2019-03-24T02:06:34.659Z,1013.05
2019-03-24T02:07:34.655Z,1013.10
2019-03-24T02:08:34.641Z,1013.02
2019-03-24T02:09:34.633Z,1013.01
2019-03-24T02:10:34.643Z,1013.04
2019-03-24T02:11:34.622Z,1013.01
2019-03-24T02:12:34.614Z,1013.03
2019-03-24T02:13:34.613Z,1013.05
2019-03-24T02:14:34.599Z,1013.08
2019-03-24T02:15:34.593Z,1013.06
2019-03-24T02:16:34.690Z,1013.03
2019-03-24T02:17:34.600Z,1013.01
2019-03-24T02:18:34.600Z,1013.02
2019-03-24T02:19:34.602Z,1013.13
2019-03-24T02:20:34.573Z,1013.08
2019-03-24T02:21:34.569Z,1013.13
2019-03-24T02:22:34.566Z,1013.11
2019-03-24T02:23:34.559Z,1013.02
2019-03-24T02:24:34.558Z,1013.04
2019-03-24T02:25:34.540Z,1013.10
2019-03-24T02:26:34.546Z,1013.05
2019-03-24T02:27:34.583Z,1013.06
2019-03-24T02:28:34.511Z,1013.06
2019-03-24T02:29:34.548Z,1013.08
2019-03-24T02:30:34.517Z,1013.04
2019-03-24T02:31:34.506Z,1012.99
2019-03-24T02:32:34.521Z,1013.03
2019-03-24T02:33:34.513Z,1013.03
2019-03-24T02:34:34.510Z,1013.03
2019-03-24T02:35:34.482Z,1013.04
2019-03-24T02:36:34.476Z,1013.08
2019-03-24T02:37:34.463Z,1013.01
2019-03-24T02:38:34.466Z,1013.01
2019-03-24T02:39:34.542Z,1012.99
2019-03-24T02:40:34.501Z,1013.04
2019-03-24T02:41:34.472Z,1013.10
2019-03-24T02:42:34.467Z,1012.96
2019-03-24T02:43:34.453Z,1013.03
2019-03-24T02:44:34.454Z,1013.05
2019-03-24T02:45:34.451Z,1012.99
2019-03-24T02:46:34.430Z,1012.97
2019-03-24T02:47:34.422Z,1013.05
2019-03-24T02:48:34.421Z,1013.01
2019-03-24T02:49:34.412Z,1013.05
2019-03-24T02:50:34.400Z,1012.98
2019-03-24T02:51:34.398Z,1012.99
2019-03-24T02:52:34.395Z,1013.00
2019-03-24T02:53:34.378Z,1012.97
2019-03-24T02:54:34.367Z,1012.95
2019-03-24T02:55:34.373Z,1012.94
2019-03-24T02:56:34.372Z,1012.87
2019-03-24T02:57:34.345Z,1012.97
2019-03-24T02:58:34.334Z,1012.90
2019-03-24T02:59:34.332Z,1012.95
2019-03-24T03:00:34.334Z,1012.87
2019-03-24T03:01:34.329Z,1012.92
2019-03-24T03:02:34.316Z,1012.92
2019-03-24T03:03:34.312Z,1012.84
2019-03-24T03:04:35.298Z,1012.87
2019-03-24T03:05:34.289Z,1012.87
2019-03-24T03:06:34.292Z,1012.91
2019-03-24T03:07:34.275Z,1012.85
2019-03-24T03:08:34.271Z,1012.87
2019-03-24T03:09:34.267Z,1012.85
2019-03-24T03:10:34.253Z,1012.89
2019-03-24T03:11:34.242Z,1012.92
2019-03-24T03:12:34.245Z,1012.78
2019-03-24T03:13:34.251Z,1012.89
2019-03-24T03:14:34.240Z,1012.82
2019-03-24T03:15:34.232Z,1012.81
2019-03-24T03:16:38.727Z,1012.79
2019-03-24T03:17:36.230Z,1012.81
2019-03-24T03:18:34.219Z,1012.78
2019-03-24T03:19:34.209Z,1012.75
2019-03-24T03:20:34.216Z,1012.73
2019-03-24T03:21:34.209Z,1012.74
2019-03-24T03:22:34.201Z,1012.71
2019-03-24T03:23:34.225Z,1012.69
2019-03-24T03:24:34.198Z,1012.74
2019-03-24T03:25:34.194Z,1012.75
2019-03-24T03:26:34.193Z,1012.76
2019-03-24T03:27:34.182Z,1012.75
2019-03-24T03:28:34.172Z,1012.74
2019-03-24T03:29:34.166Z,1012.77
2019-03-24T03:30:34.151Z,1012.76
2019-03-24T03:31:34.155Z,1012.69
2019-03-24T03:32:34.166Z,1012.75
2019-03-24T03:33:34.159Z,1012.72
2019-03-24T03:34:34.138Z,1012.73
2019-03-24T03:35:34.145Z,1012.76
2019-03-24T03:36:34.110Z,1012.73
2019-03-24T03:37:34.131Z,1012.73
2019-03-24T03:38:34.115Z,1012.67
2019-03-24T03:39:34.136Z,1012.73
2019-03-24T03:40:34.123Z,1012.75
2019-03-24T03:41:34.078Z,1012.74
2019-03-24T03:42:34.073Z,1012.72
2019-03-24T03:43:34.064Z,1012.77
2019-03-24T03:44:34.067Z,1012.76
2019-03-24T03:45:34.052Z,1012.78
2019-03-24T03:46:34.051Z,1012.76
2019-03-24T03:47:34.057Z,1012.76
2019-03-24T03:48:34.049Z,1012.77
2019-03-24T03:49:34.046Z,1012.75
2019-03-24T03:50:34.035Z,1012.75
2019-03-24T03:51:34.036Z,1012.75
2019-03-24T03:52:34.010Z,1012.69
2019-03-24T03:53:35.066Z,1012.79
2019-03-24T03:54:34.039Z,1012.75
2019-03-24T03:55:34.006Z,1012.74
2019-03-24T03:56:33.989Z,1012.73
2019-03-24T03:57:33.985Z,1012.71
2019-03-24T03:58:33.980Z,1012.75
2019-03-24T03:59:33.971Z,1012.78
2019-03-24T04:00:33.985Z,1012.73
2019-03-24T04:01:33.946Z,1012.77
2019-03-24T04:02:33.937Z,1012.71
2019-03-24T04:03:33.959Z,1012.70
2019-03-24T04:04:33.969Z,1012.71
2019-03-24T04:05:33.994Z,1012.71
2019-03-24T04:06:33.964Z,1012.71
2019-03-24T04:07:33.962Z,1012.71
2019-03-24T04:08:33.979Z,1012.67
2019-03-24T04:09:33.933Z,1012.70
2019-03-24T04:10:33.934Z,1012.68
2019-03-24T04:11:33.921Z,1012.71
2019-03-24T04:12:33.905Z,1012.65
2019-03-24T04:13:33.913Z,1012.66
2019-03-24T04:14:33.911Z,1012.67
2019-03-24T04:15:33.901Z,1012.69
2019-03-24T04:16:33.933Z,1012.68
2019-03-24T04:17:33.890Z,1012.65
2019-03-24T04:18:33.903Z,1012.69
2019-03-24T04:19:34.877Z,1012.70
2019-03-24T04:20:33.867Z,1012.71
2019-03-24T04:21:33.863Z,1012.69
2019-03-24T04:22:33.865Z,1012.67
2019-03-24T04:23:33.834Z,1012.69
2019-03-24T04:24:33.827Z,1012.62
2019-03-24T04:25:33.834Z,1012.64
2019-03-24T04:26:33.820Z,1012.57
2019-03-24T04:27:33.890Z,1012.60
2019-03-24T04:28:33.847Z,1012.59
2019-03-24T04:29:33.811Z,1012.65
2019-03-24T04:30:33.791Z,1012.61
2019-03-24T04:31:33.795Z,1012.63
2019-03-24T04:32:33.794Z,1012.62
2019-03-24T04:33:33.782Z,1012.68
2019-03-24T04:34:33.766Z,1012.64
2019-03-24T04:35:33.763Z,1012.64
2019-03-24T04:36:33.758Z,1012.71
2019-03-24T04:37:33.739Z,1012.64
2019-03-24T04:38:33.742Z,1012.66
2019-03-24T04:39:33.726Z,1012.61
2019-03-24T04:40:33.727Z,1012.66
2019-03-24T04:41:33.708Z,1012.66
2019-03-24T04:42:33.713Z,1012.60
2019-03-24T04:43:33.719Z,1012.57
2019-03-24T04:44:33.715Z,1012.62
2019-03-24T04:45:33.708Z,1012.57
2019-03-24T04:46:33.699Z,1012.67
2019-03-24T04:47:33.689Z,1012.61
2019-03-24T04:48:33.689Z,1012.58
2019-03-24T04:49:33.675Z,1012.56
2019-03-24T04:50:33.675Z,1012.53
2019-03-24T04:51:33.707Z,1012.54
2019-03-24T04:52:33.658Z,1012.52
2019-03-24T04:53:33.675Z,1012.56
2019-03-24T04:54:33.659Z,1012.58
2019-03-24T04:55:33.648Z,1012.56
2019-03-24T04:56:33.632Z,1012.52
2019-03-24T04:57:33.628Z,1012.58
2019-03-24T04:58:33.620Z,1012.52
2019-03-24T04:59:33.617Z,1012.54
2019-03-24T05:00:33.612Z,1012.49
2019-03-24T05:01:33.613Z,1012.55
2019-03-24T05:02:33.607Z,1012.55
2019-03-24T05:03:33.630Z,1012.52
2019-03-24T05:04:33.628Z,1012.57
2019-03-24T05:05:33.582Z,1012.57
2019-03-24T05:06:33.574Z,1012.56
2019-03-24T05:07:33.565Z,1012.60
2019-03-24T05:08:33.560Z,1012.60
2019-03-24T05:09:33.547Z,1012.61
2019-03-24T05:10:33.552Z,1012.57
2019-03-24T05:11:33.553Z,1012.62
2019-03-24T05:12:33.541Z,1012.64
2019-03-24T05:13:33.532Z,1012.57
2019-03-24T05:14:33.524Z,1012.57
2019-03-24T05:15:33.524Z,1012.60
2019-03-24T05:16:33.513Z,1012.63
2019-03-24T05:17:33.510Z,1012.61
2019-03-24T05:18:33.496Z,1012.58
2019-03-24T05:19:33.494Z,1012.59
2019-03-24T05:20:33.482Z,1012.72
2019-03-24T05:21:33.467Z,1012.72
2019-03-24T05:22:33.465Z,1012.74
2019-03-24T05:23:33.454Z,1012.72
2019-03-24T05:24:33.453Z,1012.77
2019-03-24T05:25:33.432Z,1012.73
2019-03-24T05:26:33.437Z,1012.72
2019-03-24T05:27:33.423Z,1012.77
2019-03-24T05:28:33.429Z,1012.70
2019-03-24T05:29:33.411Z,1012.71
2019-03-24T05:30:33.402Z,1012.68
2019-03-24T05:31:33.403Z,1012.63
2019-03-24T05:32:33.395Z,1012.62
2019-03-24T05:33:33.408Z,1012.65
2019-03-24T05:34:33.410Z,1012.66
2019-03-24T05:35:33.415Z,1012.61
2019-03-24T05:36:33.417Z,1012.63
2019-03-24T05:37:33.421Z,1012.72
2019-03-24T05:38:33.410Z,1012.70
2019-03-24T05:39:33.420Z,1012.63
2019-03-24T05:40:33.400Z,1012.61
2019-03-24T05:41:33.387Z,1012.59
2019-03-24T05:42:33.392Z,1012.71
2019-03-24T05:43:33.374Z,1012.59
2019-03-24T05:44:33.368Z,1012.68
2019-03-24T05:45:33.381Z,1012.57
2019-03-24T05:46:33.368Z,1012.67
2019-03-24T05:47:37.380Z,1012.61
2019-03-24T05:48:34.338Z,1012.66
2019-03-24T05:49:33.329Z,1012.61
2019-03-24T05:50:33.337Z,1012.59
2019-03-24T05:51:33.309Z,1012.63
2019-03-24T05:52:33.303Z,1012.66
2019-03-24T05:53:33.291Z,1012.58
2019-03-24T05:54:33.289Z,1012.69
2019-03-24T05:55:33.301Z,1012.65
2019-03-24T05:56:33.274Z,1012.61
2019-03-24T05:57:33.259Z,1012.62
2019-03-24T05:58:33.253Z,1012.62
2019-03-24T05:59:33.254Z,1012.68
2019-03-24T06:00:33.245Z,1012.71
2019-03-24T06:01:33.233Z,1012.71
2019-03-24T06:02:33.218Z,1012.66
2019-03-24T06:03:33.213Z,1012.67
2019-03-24T06:04:33.225Z,1012.67
2019-03-24T06:05:33.203Z,1012.66
2019-03-24T06:06:33.204Z,1012.68
2019-03-24T06:07:33.206Z,1012.69
2019-03-24T06:08:33.203Z,1012.66
2019-03-24T06:09:33.194Z,1012.73
2019-03-24T06:10:33.182Z,1012.63
2019-03-24T06:11:33.181Z,1012.66
2019-03-24T06:12:33.175Z,1012.70
2019-03-24T06:13:33.162Z,1012.72
2019-03-24T06:14:33.154Z,1012.70
2019-03-24T06:15:33.154Z,1012.73
2019-03-24T06:16:33.137Z,1012.74
2019-03-24T06:17:33.143Z,1012.78
2019-03-24T06:18:33.118Z,1012.76
2019-03-24T06:19:34.111Z,1012.81
2019-03-24T06:20:33.107Z,1012.73
2019-03-24T06:21:33.105Z,1012.84
2019-03-24T06:22:33.092Z,1012.79
2019-03-24T06:23:33.082Z,1012.80
2019-03-24T06:24:33.072Z,1012.79
2019-03-24T06:25:34.923Z,1012.82
2019-03-24T06:26:34.055Z,1012.81
2019-03-24T06:27:33.048Z,1012.79
2019-03-24T06:28:33.049Z,1012.79
2019-03-24T06:29:33.038Z,1012.90
2019-03-24T06:30:33.039Z,1012.84
2019-03-24T06:31:33.018Z,1012.84
2019-03-24T06:32:33.015Z,1012.82
2019-03-24T06:33:33.021Z,1012.77
2019-03-24T06:34:32.990Z,1012.76
2019-03-24T06:35:32.988Z,1012.78
2019-03-24T06:36:32.987Z,1012.85
2019-03-24T06:37:32.979Z,1012.80
2019-03-24T06:38:32.973Z,1012.84
2019-03-24T06:39:32.967Z,1012.83
2019-03-24T06:40:32.952Z,1012.86
2019-03-24T06:41:32.950Z,1012.88
2019-03-24T06:42:32.938Z,1012.84
2019-03-24T06:43:32.938Z,1012.87
2019-03-24T06:44:32.923Z,1012.88
2019-03-24T06:45:32.925Z,1012.85
2019-03-24T06:46:32.945Z,1012.84
2019-03-24T06:47:32.911Z,1012.85
2019-03-24T06:48:32.901Z,1012.84
2019-03-24T06:49:32.913Z,1012.88
2019-03-24T06:50:32.887Z,1012.80
2019-03-24T06:51:33.881Z,1012.85
2019-03-24T06:52:32.876Z,1012.81
2019-03-24T06:53:32.887Z,1012.80
2019-03-24T06:54:32.888Z,1012.80
2019-03-24T06:55:32.874Z,1012.85
2019-03-24T06:56:32.863Z,1012.84
2019-03-24T06:57:32.867Z,1012.80
2019-03-24T06:58:32.862Z,1012.77
2019-03-24T06:59:32.855Z,1012.81
2019-03-24T07:00:32.850Z,1012.85
2019-03-24T07:01:32.833Z,1012.88
2019-03-24T07:02:32.821Z,1012.88
2019-03-24T07:03:32.882Z,1012.87
2019-03-24T07:04:32.811Z,1012.87
2019-03-24T07:05:32.806Z,1012.84
2019-03-24T07:06:34.720Z,1012.85
2019-03-24T07:07:32.780Z,1012.86
2019-03-24T07:08:32.773Z,1012.90
2019-03-24T07:09:32.773Z,1012.88
2019-03-24T07:10:32.771Z,1012.87
2019-03-24T07:11:32.755Z,1012.90
2019-03-24T07:12:32.752Z,1012.89
2019-03-24T07:13:32.737Z,1012.89
2019-03-24T07:14:32.727Z,1012.90
2019-03-24T07:15:32.728Z,1012.84
2019-03-24T07:16:32.734Z,1012.83
2019-03-24T07:17:32.718Z,1012.94
2019-03-24T07:18:32.710Z,1012.92
2019-03-24T07:19:32.746Z,1012.92
2019-03-24T07:20:32.694Z,1012.90
2019-03-24T07:21:32.688Z,1012.96
2019-03-24T07:22:32.673Z,1012.87
2019-03-24T07:23:32.669Z,1012.92
2019-03-24T07:24:32.661Z,1012.94
2019-03-24T07:25:32.649Z,1012.89
2019-03-24T07:26:32.652Z,1012.86
2019-03-24T07:27:32.639Z,1012.91
2019-03-24T07:28:32.637Z,1012.86
2019-03-24T07:29:32.635Z,1012.89
2019-03-24T07:30:32.627Z,1012.89
2019-03-24T07:31:32.627Z,1012.87
2019-03-24T07:32:32.633Z,1012.89
2019-03-24T07:33:32.623Z,1012.95
2019-03-24T07:34:32.624Z,1012.92
2019-03-24T07:35:32.607Z,1012.93
2019-03-24T07:36:32.607Z,1012.86
2019-03-24T07:37:32.635Z,1012.94
2019-03-24T07:38:32.624Z,1012.95
2019-03-24T07:39:32.609Z,1012.91
2019-03-24T07:40:32.598Z,1012.88
2019-03-24T07:41:32.598Z,1012.84
2019-03-24T07:42:32.593Z,1012.84
2019-03-24T07:43:32.577Z,1012.88
2019-03-24T07:44:32.569Z,1012.93
2019-03-24T07:45:32.558Z,1012.87
2019-03-24T07:46:32.550Z,1012.85
2019-03-24T07:47:32.546Z,1012.86
2019-03-24T07:48:32.534Z,1012.78
2019-03-24T07:49:32.535Z,1012.78
2019-03-24T07:50:32.516Z,1012.76
2019-03-24T07:51:32.511Z,1012.70
2019-03-24T07:52:32.504Z,1012.78
2019-03-24T07:53:32.513Z,1012.70
2019-03-24T07:54:32.531Z,1012.75
2019-03-24T07:55:32.517Z,1012.68
2019-03-24T07:56:32.518Z,1012.72
2019-03-24T07:57:32.503Z,1012.72
2019-03-24T07:58:32.507Z,1012.67
2019-03-24T07:59:32.496Z,1012.68
2019-03-24T08:00:32.488Z,1012.66
2019-03-24T08:01:32.472Z,1012.70
2019-03-24T08:02:32.465Z,1012.67
2019-03-24T08:03:32.461Z,1012.69
2019-03-24T08:04:32.449Z,1012.64
2019-03-24T08:05:32.446Z,1012.65
2019-03-24T08:06:32.431Z,1012.64
2019-03-24T08:07:32.426Z,1012.67
2019-03-24T08:08:32.439Z,1012.60
2019-03-24T08:09:32.438Z,1012.58
2019-03-24T08:10:32.425Z,1012.60
2019-03-24T08:11:32.414Z,1012.59
2019-03-24T08:12:32.405Z,1012.64
2019-03-24T08:13:32.401Z,1012.64
2019-03-24T08:14:32.402Z,1012.57
2019-03-24T08:15:32.384Z,1012.62
2019-03-24T08:16:32.377Z,1012.58
2019-03-24T08:17:32.374Z,1012.56
2019-03-24T08:18:32.363Z,1012.53
2019-03-24T08:19:32.361Z,1012.54
2019-03-24T08:20:32.352Z,1012.55
2019-03-24T08:21:32.340Z,1012.56
2019-03-24T08:22:32.332Z,1012.53
2019-03-24T08:23:32.326Z,1012.57
2019-03-24T08:24:32.311Z,1012.54
2019-03-24T08:25:32.306Z,1012.46
2019-03-24T08:26:32.299Z,1012.52
2019-03-24T08:27:32.290Z,1012.52
2019-03-24T08:28:32.285Z,1012.43
2019-03-24T08:29:32.272Z,1012.40
2019-03-24T08:30:32.262Z,1012.46
2019-03-24T08:31:32.256Z,1012.41
2019-03-24T08:32:32.252Z,1012.40
2019-03-24T08:33:32.240Z,1012.36
2019-03-24T08:34:32.230Z,1012.36
2019-03-24T08:35:32.222Z,1012.40
2019-03-24T08:36:32.209Z,1012.33
2019-03-24T08:37:32.207Z,1012.33
2019-03-24T08:38:32.227Z,1012.28
2019-03-24T08:39:32.192Z,1012.32
2019-03-24T08:40:32.207Z,1012.29
2019-03-24T08:41:32.189Z,1012.27
2019-03-24T08:42:32.181Z,1012.28
2019-03-24T08:43:32.175Z,1012.25
2019-03-24T08:44:32.177Z,1012.25
2019-03-24T08:45:32.165Z,1012.28
2019-03-24T08:46:32.172Z,1012.25
2019-03-24T08:47:32.149Z,1012.26
2019-03-24T08:48:40.514Z,1012.21
2019-03-24T08:49:34.145Z,1012.25
2019-03-24T08:50:32.122Z,1012.18
2019-03-24T08:51:32.113Z,1012.19
2019-03-24T08:52:32.105Z,1012.18
2019-03-24T08:53:32.103Z,1012.15
2019-03-24T08:54:32.094Z,1012.15
2019-03-24T08:55:32.093Z,1012.06
2019-03-24T08:56:32.075Z,1012.04
2019-03-24T08:57:32.563Z,1012.02
2019-03-24T08:58:33.057Z,1011.99
2019-03-24T08:59:32.050Z,1012.02
2019-03-24T09:00:32.054Z,1011.99
2019-03-24T09:01:32.035Z,1012.01
2019-03-24T09:02:32.030Z,1011.97
2019-03-24T09:03:32.751Z,1011.99
2019-03-24T09:04:33.017Z,1011.93
2019-03-24T09:05:33.731Z,1011.94
2019-03-24T09:06:32.000Z,1011.97
2019-03-24T09:07:31.987Z,1011.91
2019-03-24T09:08:31.978Z,1011.93
2019-03-24T09:09:31.969Z,1011.89
2019-03-24T09:10:31.970Z,1011.87
2019-03-24T09:11:31.973Z,1011.89
2019-03-24T09:12:31.946Z,1011.89
2019-03-24T09:13:31.940Z,1011.86
2019-03-24T09:14:32.928Z,1011.83
2019-03-24T09:15:31.946Z,1011.82
2019-03-24T09:16:31.934Z,1011.83
2019-03-24T09:17:32.000Z,1011.86
2019-03-24T09:18:31.917Z,1011.83
2019-03-24T09:19:31.908Z,1011.88
2019-03-24T09:20:41.243Z,1011.88
2019-03-24T09:21:33.921Z,1011.91
2019-03-24T09:22:31.911Z,1011.87
2019-03-24T09:23:31.892Z,1011.83
2019-03-24T09:24:31.913Z,1011.79
2019-03-24T09:25:31.994Z,1011.87
2019-03-24T09:26:32.361Z,1011.81
2019-03-24T09:27:31.896Z,1011.81
2019-03-24T09:28:31.880Z,1011.71
2019-03-24T09:29:31.875Z,1011.72
2019-03-24T09:30:31.865Z,1011.74
2019-03-24T09:31:31.852Z,1011.74
2019-03-24T09:32:31.855Z,1011.81
2019-03-24T09:33:31.839Z,1011.82
2019-03-24T09:34:31.838Z,1011.72
2019-03-24T09:35:31.833Z,1011.71
2019-03-24T09:36:31.812Z,1011.72
2019-03-24T09:37:31.817Z,1011.75
2019-03-24T09:38:31.799Z,1011.69
2019-03-24T09:39:31.796Z,1011.71
2019-03-24T09:40:31.798Z,1011.72
2019-03-24T09:41:31.793Z,1011.71
2019-03-24T09:42:31.786Z,1011.71
2019-03-24T09:43:31.781Z,1011.64
2019-03-24T09:44:31.765Z,1011.72
2019-03-24T09:45:31.766Z,1011.78
2019-03-24T09:46:31.744Z,1011.77
2019-03-24T09:47:31.760Z,1011.74
2019-03-24T09:48:31.738Z,1011.71
2019-03-24T09:49:31.730Z,1011.76
2019-03-24T09:50:31.742Z,1011.75
2019-03-24T09:51:31.722Z,1011.77
2019-03-24T09:52:31.706Z,1011.77
2019-03-24T09:53:31.706Z,1011.77
2019-03-24T09:54:31.690Z,1011.72
2019-03-24T09:55:31.676Z,1011.71
2019-03-24T09:56:31.670Z,1011.69
2019-03-24T09:57:31.660Z,1011.70
2019-03-24T09:58:31.683Z,1011.65
2019-03-24T09:59:31.671Z,1011.65
2019-03-24T10:00:31.658Z,1011.61
2019-03-24T10:01:31.649Z,1011.63
2019-03-24T10:02:31.642Z,1011.63
2019-03-24T10:03:31.641Z,1011.56
2019-03-24T10:04:31.632Z,1011.59
2019-03-24T10:05:31.621Z,1011.57
2019-03-24T10:06:31.610Z,1011.56
2019-03-24T10:07:31.602Z,1011.63
2019-03-24T10:08:31.597Z,1011.63
2019-03-24T10:09:31.611Z,1011.64
2019-03-24T10:10:31.596Z,1011.64
2019-03-24T10:11:31.587Z,1011.62
2019-03-24T10:12:31.578Z,1011.63
2019-03-24T10:13:31.571Z,1011.62
2019-03-24T10:14:31.566Z,1011.55
2019-03-24T10:15:31.560Z,1011.67
2019-03-24T10:16:31.545Z,1011.55
2019-03-24T10:17:31.551Z,1011.54
2019-03-24T10:18:31.550Z,1011.54
2019-03-24T10:19:31.538Z,1011.51
2019-03-24T10:20:31.531Z,1011.53
2019-03-24T10:21:31.517Z,1011.49
2019-03-24T10:22:31.508Z,1011.53
2019-03-24T10:23:31.503Z,1011.42
2019-03-24T10:24:31.514Z,1011.36
2019-03-24T10:25:31.501Z,1011.41
2019-03-24T10:26:31.483Z,1011.31
2019-03-24T10:27:31.472Z,1011.39
2019-03-24T10:28:31.486Z,1011.35
2019-03-24T10:29:31.457Z,1011.44
2019-03-24T10:30:31.453Z,1011.38
2019-03-24T10:31:31.442Z,1011.35
2019-03-24T10:32:31.433Z,1011.38
2019-03-24T10:33:31.434Z,1011.36
2019-03-24T10:34:31.417Z,1011.44
2019-03-24T10:35:31.409Z,1011.42
2019-03-24T10:36:31.407Z,1011.34
2019-03-24T10:37:31.394Z,1011.37
2019-03-24T10:38:31.381Z,1011.34
2019-03-24T10:39:32.089Z,1011.31
2019-03-24T10:40:32.375Z,1011.34
2019-03-24T10:41:31.392Z,1011.35
2019-03-24T10:42:31.386Z,1011.36
2019-03-24T10:43:31.371Z,1011.29
2019-03-24T10:44:31.363Z,1011.30
2019-03-24T10:45:31.360Z,1011.29
2019-03-24T10:46:31.374Z,1011.28
2019-03-24T10:47:31.376Z,1011.14
2019-03-24T10:48:33.946Z,1011.23
2019-03-24T10:49:32.355Z,1011.17
2019-03-24T10:50:31.363Z,1011.21
2019-03-24T10:51:31.340Z,1011.14
2019-03-24T10:52:31.332Z,1011.16
2019-03-24T10:53:31.326Z,1011.15
2019-03-24T10:54:31.312Z,1011.20
2019-03-24T10:55:31.307Z,1011.18
2019-03-24T10:56:31.303Z,1011.15
2019-03-24T10:57:31.287Z,1011.17
2019-03-24T10:58:31.288Z,1011.08
2019-03-24T10:59:31.270Z,1011.08
2019-03-24T11:00:31.287Z,1011.14
2019-03-24T11:01:31.297Z,1011.09
2019-03-24T11:02:31.271Z,1011.12
2019-03-24T11:03:31.270Z,1011.12
2019-03-24T11:04:31.261Z,1011.04
2019-03-24T11:05:31.257Z,1010.99
2019-03-24T11:06:31.243Z,1011.07
2019-03-24T11:07:31.255Z,1010.97
2019-03-24T11:08:31.254Z,1011.01
2019-03-24T11:09:31.249Z,1011.02
2019-03-24T11:10:31.235Z,1011.01
2019-03-24T11:11:31.226Z,1010.95
2019-03-24T11:12:31.218Z,1010.97
2019-03-24T11:13:31.213Z,1010.93
2019-03-24T11:14:31.207Z,1010.93
2019-03-24T11:15:31.196Z,1010.92
2019-03-24T11:16:31.190Z,1010.94
2019-03-24T11:17:31.178Z,1010.93
2019-03-24T11:18:31.175Z,1011.00
2019-03-24T11:19:35.683Z,1010.91
2019-03-24T11:20:32.158Z,1010.97
2019-03-24T11:21:31.144Z,1010.90
2019-03-24T11:22:31.136Z,1010.96
2019-03-24T11:23:31.129Z,1010.88
2019-03-24T11:24:31.126Z,1010.86
2019-03-24T11:25:31.129Z,1010.93
2019-03-24T11:26:31.118Z,1010.87
2019-03-24T11:27:31.103Z,1010.87
2019-03-24T11:28:31.108Z,1010.87
2019-03-24T11:29:31.090Z,1010.86
2019-03-24T11:30:31.097Z,1010.86
2019-03-24T11:31:31.072Z,1010.85
2019-03-24T11:32:31.063Z,1010.89
2019-03-24T11:33:31.055Z,1010.81
2019-03-24T11:34:31.047Z,1010.84
2019-03-24T11:35:31.046Z,1010.85
2019-03-24T11:36:31.036Z,1010.87
2019-03-24T11:37:31.024Z,1010.81
2019-03-24T11:38:31.014Z,1010.87
2019-03-24T11:39:31.007Z,1010.89
2019-03-24T11:40:30.998Z,1010.90
2019-03-24T11:41:30.993Z,1010.78
2019-03-24T11:42:30.989Z,1010.78
2019-03-24T11:43:30.982Z,1010.81
2019-03-24T11:44:30.970Z,1010.85
2019-03-24T11:45:30.963Z,1010.81
2019-03-24T11:46:30.963Z,1010.86
2019-03-24T11:47:30.954Z,1010.91
2019-03-24T11:48:30.944Z,1010.90
2019-03-24T11:49:30.940Z,1010.81
2019-03-24T11:50:30.930Z,1010.85
2019-03-24T11:51:30.923Z,1010.86
2019-03-24T11:52:30.918Z,1010.82
2019-03-24T11:53:30.907Z,1010.81
2019-03-24T11:54:30.901Z,1010.80
2019-03-24T11:55:30.894Z,1010.73
2019-03-24T11:56:30.882Z,1010.69
2019-03-24T11:57:30.888Z,1010.71
2019-03-24T11:58:30.916Z,1010.71
2019-03-24T11:59:30.860Z,1010.75
2019-03-24T12:00:30.852Z,1010.66
2019-03-24T12:01:38.271Z,1010.68
2019-03-24T12:02:32.854Z,1010.66
2019-03-24T12:03:30.830Z,1010.68
2019-03-24T12:04:30.823Z,1010.69
2019-03-24T12:05:30.813Z,1010.69